^^
Meteo Knjazevac Station Historical Data
Daily Summary for July 22, 2021 Units:  English    Metric   Both
Daily Weekly Monthly Yearly Custom
  High: Low: Average:
Temperature: 72.3 °F 45.6 °F 59.4 °F
Dew Point: 57.2 °F 44 °F 51.9 °F
Humidity: 98% 57% 78%
Wind Speed: 9mph 0mph 2.6mph
Wind Gust: 15mph - -
Wind- - South
Pressure: 30.17 in 30.09 in -
Precipitation: 0.00 in    
Historical Graphs
 
 
Tabular Data for July 22, 2021
Time Temperature Dew Point Pressure Wind Wind Speed Wind Gust Humidity Rainfall Rate (Hourly) solar Conditions
00:00 53.4 °F 48.7 °F 30.10 in Calm   6 mph 84% 0.00 in 0 W/m2
00:10 53.2 °F 48.5 °F 30.10 in SE 2 mph 5 mph 84% 0.00 in 0 W/m2
00:20 53.1 °F 48.4 °F 30.10 in East 1 mph 6 mph 84% 0.00 in 0 W/m2
00:30 52.9 °F 48.2 °F 30.10 in ESE 2 mph 5 mph 84% 0.00 in 0 W/m2
00:40 52.8 °F 48.1 °F 30.10 in Calm   5 mph 84% 0.00 in 0 W/m2
00:50 52.4 °F 48.1 °F 30.10 in ESE 1 mph 6 mph 85% 0.00 in 0 W/m2
01:00 52.3 °F 48 °F 30.10 in ENE 1 mph 5 mph 85% 0.00 in 0 W/m2
01:10 52.3 °F 48 °F 30.10 in SE 3 mph 6 mph 85% 0.00 in 0 W/m2
01:20 52.3 °F 48 °F 30.10 in ENE 3 mph 6 mph 85% 0.00 in 0 W/m2
01:30 52.2 °F 47.8 °F 30.10 in NNE 3 mph 6 mph 85% 0.00 in 0 W/m2
01:50 52 °F 47.9 °F 30.10 in NE 5 mph 10 mph 86% 0.00 in 0 W/m2
02:00 51.8 °F 47.7 °F 30.10 in East 5 mph 10 mph 86% 0.00 in 0 W/m2
02:10 51.6 °F 47.6 °F 30.11 in ENE 5 mph 8 mph 86% 0.00 in 0 W/m2
02:20 51.6 °F 47.6 °F 30.11 in East 5 mph 9 mph 86% 0.00 in 0 W/m2
02:30 51.7 °F 47.7 °F 30.11 in ESE 3 mph 7 mph 86% 0.00 in 0 W/m2
02:40 51.4 °F 47.4 °F 30.10 in NE 3 mph 7 mph 86% 0.00 in 0 W/m2
02:50 51.2 °F 47.7 °F 30.11 in NNE 1 mph 5 mph 88% 0.00 in 0 W/m2
03:00 50.9 °F 47.5 °F 30.11 in NE 3 mph 6 mph 88% 0.00 in 0 W/m2
03:10 51.1 °F 47.6 °F 30.10 in NE 2 mph 7 mph 88% 0.00 in 0 W/m2
03:20 50.9 °F 47.5 °F 30.11 in NE 2 mph 5 mph 88% 0.00 in 0 W/m2
03:30 50.7 °F 47.6 °F 30.11 in ESE 1 mph 5 mph 89% 0.00 in 0 W/m2
03:40 50.3 °F 47.2 °F 30.10 in ESE 3 mph 7 mph 89% 0.00 in 0 W/m2
03:50 50.2 °F 47.1 °F 30.10 in SE 1 mph 6 mph 89% 0.00 in 0 W/m2
04:00 49.8 °F 46.7 °F 30.10 in SW 1 mph 4 mph 89% 0.00 in 0 W/m2
04:10 49.6 °F 46.8 °F 30.10 in ENE 1 mph 3 mph 90% 0.00 in 0 W/m2
04:20 49.6 °F 46.8 °F 30.10 in North 1 mph 3 mph 90% 0.00 in 0 W/m2
04:30 49.8 °F 47 °F 30.11 in ESE 2 mph 5 mph 90% 0.00 in 0 W/m2
04:40 50.2 °F 47.1 °F 30.11 in Calm   7 mph 89% 0.00 in 0 W/m2
04:50 49.5 °F 46.4 °F 30.11 in NE 3 mph 5 mph 89% 0.00 in 0 W/m2
05:00 49.2 °F 46.1 °F 30.11 in NE 1 mph 5 mph 89% 0.00 in 0 W/m2
05:10 48.1 °F 45.3 °F 30.12 in WNW 2 mph 3 mph 90% 0.00 in 0 W/m2
05:20 47.8 °F 45.3 °F 30.12 in Calm   4 mph 91% 0.00 in 0 W/m2
05:30 47.6 °F 45.1 °F 30.12 in Calm   2 mph 91% 0.00 in 0 W/m2
05:40 47.7 °F 45.7 °F 30.12 in Calm   2 mph 93% 0.00 in 0 W/m2
05:50 47.1 °F 45.2 °F 30.13 in NNW 1 mph 4 mph 93% 0.00 in 0 W/m2
06:00 47.1 °F 45.2 °F 30.13 in Calm   3 mph 93% 0.00 in 0 W/m2
06:10 47.3 °F 45.9 °F 30.13 in NNE 2 mph 3 mph 95% 0.00 in 0 W/m2
06:20 47.5 °F 45.8 °F 30.13 in NE 1 mph 5 mph 94% 0.00 in 0 W/m2
06:30 46.9 °F 45 °F 30.13 in NW 1 mph 4 mph 93% 0.00 in 0 W/m2
06:40 46.9 °F 45.6 °F 30.13 in Calm   3 mph 95% 0.00 in 0 W/m2
06:50 46.9 °F 45.6 °F 30.13 in Calm   3 mph 95% 0.00 in 0 W/m2
07:00 46.5 °F 44.6 °F 30.13 in Calm   3 mph 93% 0.00 in 3 W/m2
07:10 46 °F 44.1 °F 30.13 in Calm   2 mph 93% 0.00 in 16 W/m2
07:20 45.6 °F 44 °F 30.14 in WNW 1 mph 4 mph 94% 0.00 in 27 W/m2
07:30 45.7 °F 44.3 °F 30.14 in WNW 1 mph 4 mph 95% 0.00 in 47 W/m2
07:40 46 °F 45 °F 30.14 in Calm   3 mph 96% 0.00 in 61 W/m2
07:50 45.9 °F 44.9 °F 30.14 in Calm   2 mph 96% 0.00 in 50 W/m2
08:00 46 °F 45 °F 30.14 in Calm   2 mph 96% 0.00 in 60 W/m2
08:10 46.2 °F 45.1 °F 30.15 in North 2 mph 3 mph 96% 0.00 in 62 W/m2
08:20 46.8 °F 46.2 °F 30.15 in Calm   3 mph 98% 0.00 in 115 W/m2
08:30 47.1 °F 46.6 °F 30.15 in WNW 1 mph 2 mph 98% 0.00 in 146 W/m2
08:40 48.1 °F 47.6 °F 30.16 in Calm   3 mph 98% 0.00 in 197 W/m2
08:50 49.7 °F 49.2 °F 30.16 in Calm   1 mph 98% 0.00 in 215 W/m2
09:00 51.2 °F 50.1 °F 30.16 in Calm   2 mph 96% 0.00 in 173 W/m2
09:10 52.1 °F 50.7 °F 30.17 in SW 1 mph 1 mph 95% 0.00 in 272 W/m2
09:20 53 °F 51.3 °F 30.16 in WNW 1 mph 1 mph 94% 0.00 in 258 W/m2
09:30 54.2 °F 52.3 °F 30.16 in Calm   1 mph 93% 0.00 in 328 W/m2
09:40 55.3 °F 52.7 °F 30.16 in Calm   2 mph 91% 0.00 in 251 W/m2
09:50 56.9 °F 53.9 °F 30.16 in West 1 mph 1 mph 90% 0.00 in 279 W/m2
10:00 58.9 °F 54.1 °F 30.16 in SSW 1 mph 2 mph 84% 0.00 in 303 W/m2
10:10 60.2 °F 54.3 °F 30.16 in ENE 2 mph 5 mph 81% 0.00 in 258 W/m2
10:20 61.1 °F 54.9 °F 30.16 in NNE 2 mph 5 mph 80% 0.00 in 331 W/m2
10:30 62.3 °F 55.4 °F 30.15 in North 2 mph 5 mph 78% 0.00 in 467 W/m2
10:40 64 °F 55.5 °F 30.15 in SE 1 mph 7 mph 74% 0.00 in 455 W/m2
10:50 65.2 °F 56 °F 30.15 in SE 5 mph 7 mph 72% 0.00 in 496 W/m2
11:00 66.2 °F 55.7 °F 30.15 in ESE 2 mph 7 mph 69% 0.00 in 507 W/m2
11:10 66.8 °F 55.9 °F 30.15 in SSE 6 mph 8 mph 68% 0.00 in 518 W/m2
11:20 67.6 °F 56.3 °F 30.14 in SSE 2 mph 7 mph 67% 0.00 in 527 W/m2
11:30 68.2 °F 56 °F 30.14 in SE 1 mph 9 mph 65% 0.00 in 359 W/m2
11:40 68.7 °F 56 °F 30.14 in ESE 5 mph 7 mph 64% 0.00 in 541 W/m2
11:50 69.4 °F 56.3 °F 30.14 in SW 7 mph 12 mph 63% 0.00 in 545 W/m2
12:00 69.8 °F 55.7 °F 30.14 in SW 7 mph 13 mph 61% 0.00 in 548 W/m2
12:10 70.3 °F 55.7 °F 30.13 in SW 6 mph 12 mph 60% 0.00 in 549 W/m2
12:20 70.5 °F 55.5 °F 30.13 in SW 8 mph 15 mph 59% 0.00 in 529 W/m2
12:30 70.5 °F 55.5 °F 30.13 in SW 6 mph 12 mph 59% 0.00 in 547 W/m2
12:40 71.2 °F 56.1 °F 30.12 in SW 6 mph 15 mph 59% 0.00 in 543 W/m2
12:50 71.6 °F 56 °F 30.12 in SW 7 mph 13 mph 58% 0.00 in 508 W/m2
13:00 71.8 °F 56.2 °F 30.12 in SW 6 mph 11 mph 58% 0.00 in 531 W/m2
13:10 72 °F 56.4 °F 30.12 in SW 7 mph 12 mph 58% 0.00 in 523 W/m2
13:20 72 °F 55.9 °F 30.11 in SW 7 mph 13 mph 57% 0.00 in 475 W/m2
13:30 72 °F 55.9 °F 30.11 in SW 7 mph 12 mph 57% 0.00 in 502 W/m2
13:40 72 °F 55.9 °F 30.11 in SW 9 mph 12 mph 57% 0.00 in 490 W/m2
13:50 72.1 °F 56.5 °F 30.11 in SW 7 mph 13 mph 58% 0.00 in 476 W/m2
14:00 72.3 °F 56.7 °F 30.11 in SW 7 mph 13 mph 58% 0.00 in 460 W/m2
14:10 72 °F 56.4 °F 30.10 in SW 7 mph 13 mph 58% 0.00 in 414 W/m2
14:20 71.7 °F 56.1 °F 30.10 in SW 9 mph 13 mph 58% 0.00 in 425 W/m2
14:30 71.3 °F 56.2 °F 30.10 in SW 6 mph 12 mph 59% 0.00 in 401 W/m2
14:40 71.4 °F 55.9 °F 30.10 in SSW 6 mph 12 mph 58% 0.00 in 374 W/m2
14:50 71.3 °F 56.2 °F 30.10 in SSW 8 mph 12 mph 59% 0.00 in 201 W/m2
15:00 71.1 °F 56 °F 30.10 in SW 8 mph 12 mph 59% 0.00 in 268 W/m2
15:20 71.1 °F 56.5 °F 30.10 in SSW 6 mph 10 mph 60% 0.00 in 264 W/m2
15:30 70.9 °F 56.3 °F 30.10 in SSW 5 mph 11 mph 60% 0.00 in 244 W/m2
15:40 70.9 °F 56.4 °F 30.09 in SW 6 mph 10 mph 60% 0.00 in 193 W/m2
15:50 70.9 °F 56.3 °F 30.09 in SSW 6 mph 9 mph 60% 0.00 in 220 W/m2
16:00 70.9 °F 56.3 °F 30.09 in SSW 5 mph 9 mph 60% 0.00 in 184 W/m2
16:10 70.9 °F 57.2 °F 30.09 in SSW 6 mph 10 mph 62% 0.00 in 161 W/m2
16:20 70.7 °F 57 °F 30.09 in SW 3 mph 10 mph 62% 0.00 in 143 W/m2
16:30 70.7 °F 57 °F 30.09 in SW 8 mph 12 mph 62% 0.00 in 118 W/m2
16:40 70.6 °F 57 °F 30.09 in SW 6 mph 10 mph 62% 0.00 in 85 W/m2
16:50 70.3 °F 56.7 °F 30.09 in SW 5 mph 8 mph 62% 0.00 in 37 W/m2
17:00 69.8 °F 56.6 °F 30.09 in SW 3 mph 7 mph 63% 0.00 in 23 W/m2
17:10 69.4 °F 56.7 °F 30.09 in WSW 3 mph 7 mph 64% 0.00 in 11 W/m2
17:20 69.1 °F 56.8 °F 30.09 in Calm   5 mph 65% 0.00 in 6 W/m2
17:30 68.4 °F 57 °F 30.09 in NNE 1 mph 5 mph 67% 0.00 in 2 W/m2
17:40 68 °F 55.8 °F 30.09 in ENE 1 mph 5 mph 65% 0.00 in 0 W/m2
17:50 67.5 °F 56.1 °F 30.10 in SW 1 mph 5 mph 67% 0.00 in 0 W/m2
18:00 66.9 °F 55.6 °F 30.10 in SW 1 mph 6 mph 67% 0.00 in 0 W/m2
18:10 66.7 °F 55.8 °F 30.10 in SSW 1 mph 6 mph 68% 0.00 in 0 W/m2
18:20 66.4 °F 55.5 °F 30.10 in SW 2 mph 4 mph 68% 0.00 in 0 W/m2
18:30 66 °F 55.6 °F 30.10 in SW 2 mph 3 mph 69% 0.00 in 0 W/m2
18:40 65.7 °F 55.2 °F 30.10 in SW 1 mph 4 mph 69% 0.00 in 0 W/m2
18:50 65.3 °F 54.9 °F 30.11 in SW 2 mph 5 mph 69% 0.00 in 0 W/m2
19:00 65.1 °F 54.7 °F 30.11 in SE 3 mph 6 mph 69% 0.00 in 0 W/m2
19:10 64.8 °F 54.7 °F 30.11 in South 2 mph 4 mph 70% 0.00 in 0 W/m2
19:20 64.1 °F 54.9 °F 30.11 in WSW 2 mph 5 mph 72% 0.00 in 0 W/m2
19:30 63.7 °F 54.9 °F 30.11 in NW 2 mph 4 mph 73% 0.00 in 0 W/m2
19:40 63.3 °F 54.5 °F 30.12 in East 2 mph 5 mph 73% 0.00 in 0 W/m2
19:50 63.1 °F 54.3 °F 30.11 in South 1 mph 5 mph 73% 0.00 in 0 W/m2
20:00 62.8 °F 54.4 °F 30.11 in SSE 2 mph 5 mph 74% 0.00 in 0 W/m2
20:10 62.6 °F 54.2 °F 30.12 in SSE 1 mph 7 mph 74% 0.00 in 0 W/m2
20:20 62.4 °F 54.4 °F 30.12 in WNW 1 mph 3 mph 75% 0.00 in 0 W/m2
20:30 62.1 °F 54.4 °F 30.12 in WNW 1 mph 3 mph 76% 0.00 in 0 W/m2
20:40 61.6 °F 54.6 °F 30.12 in Calm   3 mph 78% 0.00 in 0 W/m2
20:50 61 °F 54.1 °F 30.12 in NW 1 mph 2 mph 78% 0.00 in 0 W/m2
21:00 60.8 °F 54.2 °F 30.12 in NW 1 mph 2 mph 79% 0.00 in 0 W/m2
21:10 60.8 °F 53.9 °F 30.12 in SSE 2 mph 4 mph 78% 0.00 in 0 W/m2
21:20 60.8 °F 53.9 °F 30.12 in Calm   2 mph 78% 0.00 in 0 W/m2
21:30 60.4 °F 53.9 °F 30.12 in WNW 1 mph 3 mph 79% 0.00 in 0 W/m2
21:40 60.1 °F 53.9 °F 30.12 in North 1 mph 5 mph 80% 0.00 in 0 W/m2
21:50 59.7 °F 53.9 °F 30.12 in North 2 mph 4 mph 81% 0.00 in 0 W/m2
22:00 59.7 °F 53.9 °F 30.12 in SE 2 mph 5 mph 81% 0.00 in 0 W/m2
22:10 59.7 °F 53.9 °F 30.12 in SE 3 mph 5 mph 81% 0.00 in 0 W/m2
22:20 59.5 °F 53.7 °F 30.12 in ESE 3 mph 7 mph 81% 0.00 in 0 W/m2
22:30 59.7 °F 53.9 °F 30.12 in ESE 2 mph 7 mph 81% 0.00 in 0 W/m2
22:40 59.9 °F 53.7 °F 30.13 in ESE 1 mph 5 mph 80% 0.00 in 0 W/m2
22:50 59.9 °F 53.7 °F 30.13 in NNE 1 mph 3 mph 80% 0.00 in 0 W/m2
23:00 60 °F 53.9 °F 30.12 in ESE 5 mph 7 mph 80% 0.00 in 0 W/m2
23:10 59.9 °F 53.7 °F 30.13 in Calm   8 mph 80% 0.00 in 0 W/m2
23:20 59.7 °F 53.5 °F 30.13 in East 3 mph 6 mph 80% 0.00 in 0 W/m2
23:30 59.7 °F 53.5 °F 30.13 in SSE 1 mph 6 mph 80% 0.00 in 0 W/m2
23:40 59.7 °F 53.5 °F 30.13 in SE 2 mph 5 mph 80% 0.00 in 0 W/m2
23:50 59.7 °F 53.5 °F 30.13 in East 1 mph 5 mph 80% 0.00 in 0 W/m2
Knjazevac, Serbia
Compliments of Weather Underground - 2 mb